createdAt,value
2018-06-21T00:00:25.300Z,19.84
2018-06-21T00:01:25.349Z,19.83
2018-06-21T00:02:25.297Z,19.70
2018-06-21T00:03:25.295Z,19.73
2018-06-21T00:04:25.293Z,19.63
2018-06-21T00:05:25.290Z,19.69
2018-06-21T00:06:25.291Z,19.61
2018-06-21T00:07:25.287Z,19.57
2018-06-21T00:08:25.285Z,19.57
2018-06-21T00:09:25.289Z,19.51
2018-06-21T00:10:25.292Z,19.42
2018-06-21T00:11:25.276Z,19.43
2018-06-21T00:12:25.273Z,19.48
2018-06-21T00:13:25.279Z,19.48
2018-06-21T00:14:25.267Z,19.38
2018-06-21T00:15:25.267Z,19.40
2018-06-21T00:16:25.266Z,19.36
2018-06-21T00:17:25.274Z,19.25
2018-06-21T00:18:25.289Z,19.21
2018-06-21T00:19:25.258Z,19.23
2018-06-21T00:20:25.258Z,19.17
2018-06-21T00:21:25.254Z,19.13
2018-06-21T00:22:25.251Z,19.06
2018-06-21T00:23:25.255Z,18.92
2018-06-21T00:24:25.248Z,18.94
2018-06-21T00:25:25.245Z,18.94
2018-06-21T00:26:25.247Z,18.91
2018-06-21T00:27:25.241Z,18.84
2018-06-21T00:28:25.237Z,18.80
2018-06-21T00:29:25.356Z,18.86
2018-06-21T00:30:25.236Z,18.91
2018-06-21T00:31:25.231Z,18.90
2018-06-21T00:32:25.229Z,18.80
2018-06-21T00:33:25.229Z,18.90
2018-06-21T00:34:25.221Z,18.84
2018-06-21T00:35:25.222Z,18.86
2018-06-21T00:36:25.219Z,18.92
2018-06-21T00:37:25.219Z,18.79
2018-06-21T00:38:25.212Z,18.82
2018-06-21T00:39:25.212Z,18.82
2018-06-21T00:40:25.211Z,18.94
2018-06-21T00:41:25.206Z,18.91
2018-06-21T00:42:25.199Z,18.97
2018-06-21T00:43:25.204Z,18.91
2018-06-21T00:44:25.200Z,18.94
2018-06-21T00:45:25.197Z,18.98
2018-06-21T00:46:25.195Z,19.01
2018-06-21T00:47:25.194Z,18.99
2018-06-21T00:48:25.191Z,18.99
2018-06-21T00:49:25.185Z,18.90
2018-06-21T00:50:25.183Z,18.82
2018-06-21T00:51:25.182Z,18.87
2018-06-21T00:52:25.184Z,18.83
2018-06-21T00:53:25.201Z,18.84
2018-06-21T00:54:25.201Z,18.62
2018-06-21T00:55:25.170Z,18.64
2018-06-21T00:56:25.173Z,18.50
2018-06-21T00:57:25.170Z,18.50
2018-06-21T00:58:25.163Z,18.47
2018-06-21T00:59:25.166Z,18.40
2018-06-21T01:00:25.161Z,18.42
2018-06-21T01:01:25.172Z,18.43
2018-06-21T01:02:25.161Z,18.37
2018-06-21T01:03:25.156Z,18.29
2018-06-21T01:04:25.153Z,18.34
2018-06-21T01:05:25.156Z,18.33
2018-06-21T01:06:25.144Z,18.28
2018-06-21T01:07:25.142Z,18.29
2018-06-21T01:08:25.140Z,18.36
2018-06-21T01:09:25.138Z,18.31
2018-06-21T01:10:25.133Z,18.39
2018-06-21T01:11:25.138Z,18.27
2018-06-21T01:12:25.134Z,18.33
2018-06-21T01:13:25.130Z,18.24
2018-06-21T01:14:25.131Z,18.22
2018-06-21T01:15:25.121Z,18.13
2018-06-21T01:16:25.128Z,18.28
2018-06-21T01:17:25.114Z,18.47
2018-06-21T01:18:25.114Z,18.28
2018-06-21T01:19:25.122Z,18.33
2018-06-21T01:20:25.107Z,18.44
2018-06-21T01:21:25.109Z,18.50
2018-06-21T01:22:25.100Z,18.47
2018-06-21T01:23:25.103Z,18.50
2018-06-21T01:24:25.104Z,18.42
2018-06-21T01:25:25.147Z,18.46
2018-06-21T01:26:25.103Z,18.50
2018-06-21T01:27:25.091Z,18.34
2018-06-21T01:28:25.086Z,18.28
2018-06-21T01:29:25.086Z,18.33
2018-06-21T01:30:25.084Z,18.28
2018-06-21T02:04:05.452Z,17.78
2018-06-21T02:05:05.430Z,17.66
2018-06-21T02:06:58.455Z,17.67
2018-06-21T02:07:58.496Z,17.67
2018-06-21T02:09:51.531Z,17.59
2018-06-21T02:10:51.501Z,17.63
2018-06-21T02:11:51.498Z,17.63
2018-06-21T02:12:51.492Z,17.59
2018-06-21T02:13:51.490Z,17.51
2018-06-21T02:14:51.495Z,17.53
2018-06-21T02:15:51.490Z,17.53
2018-06-21T02:16:51.478Z,17.48
2018-06-21T02:17:51.490Z,17.40
2018-06-21T02:18:51.468Z,17.50
2018-06-21T02:19:51.470Z,17.50
2018-06-21T02:20:51.460Z,17.51
2018-06-21T02:21:51.458Z,17.51
2018-06-21T02:22:51.519Z,17.53
2018-06-21T02:23:51.455Z,17.51
2018-06-21T02:24:51.451Z,17.54
2018-06-21T02:25:51.447Z,17.62
2018-06-21T02:26:51.461Z,17.55
2018-06-21T02:27:51.439Z,17.64
2018-06-21T02:28:51.434Z,17.55
2018-06-21T02:29:51.432Z,17.53
2018-06-21T02:30:51.429Z,17.62
2018-06-21T02:31:51.428Z,17.62
2018-06-21T02:32:51.415Z,17.63
2018-06-21T02:33:51.416Z,17.63
2018-06-21T02:34:51.418Z,17.62
2018-06-21T02:35:51.427Z,17.67
2018-06-21T02:36:51.432Z,17.73
2018-06-21T02:37:51.423Z,17.63
2018-06-21T02:38:51.407Z,17.70
2018-06-21T02:39:51.404Z,17.63
2018-06-21T02:40:51.390Z,17.55
2018-06-21T02:41:51.427Z,17.67
2018-06-21T02:42:51.391Z,17.62
2018-06-21T02:43:51.396Z,17.53
2018-06-21T02:44:51.401Z,17.64
2018-06-21T02:45:51.403Z,17.53
2018-06-21T02:46:51.385Z,17.53
2018-06-21T02:47:51.383Z,17.51
2018-06-21T02:48:51.382Z,17.51
2018-06-21T02:49:51.373Z,17.47
2018-06-21T02:50:51.372Z,17.50
2018-06-21T02:51:51.371Z,17.44
2018-06-21T02:52:51.379Z,17.46
2018-06-21T02:53:51.366Z,17.41
2018-06-21T02:54:51.362Z,17.40
2018-06-21T02:55:51.360Z,17.48
2018-06-21T02:56:51.356Z,17.32
2018-06-21T02:57:51.352Z,17.44
2018-06-21T02:58:51.366Z,17.47
2018-06-21T02:59:51.347Z,17.38
2018-06-21T03:00:51.336Z,17.43
2018-06-21T03:01:51.343Z,17.41
2018-06-21T03:02:51.348Z,17.41
2018-06-21T03:03:51.352Z,17.38
2018-06-21T03:04:51.333Z,17.43
2018-06-21T03:05:51.347Z,17.32
2018-06-21T03:06:51.331Z,17.32
2018-06-21T03:07:51.340Z,17.36
2018-06-21T03:08:51.322Z,17.32
2018-06-21T03:09:51.320Z,17.40
2018-06-21T03:10:51.317Z,17.38
2018-06-21T03:11:51.321Z,17.41
2018-06-21T03:12:51.311Z,17.41
2018-06-21T03:13:51.317Z,17.41
2018-06-21T03:14:51.305Z,17.41
2018-06-21T03:15:51.303Z,17.47
2018-06-21T03:16:51.298Z,17.46
2018-06-21T03:17:51.296Z,17.41
2018-06-21T03:18:51.294Z,17.35
2018-06-21T03:19:51.291Z,17.40
2018-06-21T03:20:51.286Z,17.41
2018-06-21T03:21:51.283Z,17.41
2018-06-21T03:22:51.294Z,17.47
2018-06-21T03:23:51.278Z,17.40
2018-06-21T03:24:51.279Z,17.43
2018-06-21T03:25:51.278Z,17.47
2018-06-21T03:26:51.271Z,17.36
2018-06-21T03:27:51.270Z,17.43
2018-06-21T03:28:51.271Z,17.36
2018-06-21T03:29:51.283Z,17.40
2018-06-21T03:30:51.262Z,17.32
2018-06-21T03:31:51.257Z,17.36
2018-06-21T03:32:51.259Z,17.25
2018-06-21T03:33:51.256Z,17.23
2018-06-21T03:34:51.249Z,17.23
2018-06-21T03:35:51.246Z,17.23
2018-06-21T03:36:51.244Z,17.32
2018-06-21T03:37:51.238Z,17.33
2018-06-21T03:38:51.239Z,17.36
2018-06-21T03:39:51.238Z,17.43
2018-06-21T03:40:51.230Z,17.46
2018-06-21T03:41:51.228Z,17.50
2018-06-21T03:42:51.239Z,17.50
2018-06-21T03:43:51.227Z,17.66
2018-06-21T03:44:51.221Z,17.63
2018-06-21T03:45:51.214Z,17.63
2018-06-21T03:46:51.215Z,17.73
2018-06-21T03:47:51.210Z,17.78
2018-06-21T03:48:51.222Z,17.89
2018-06-21T03:49:51.207Z,17.91
2018-06-21T03:50:51.220Z,18.04
2018-06-21T03:51:51.205Z,18.03
2018-06-21T03:52:51.204Z,18.15
2018-06-21T03:53:51.208Z,18.17
2018-06-21T03:54:51.197Z,18.15
2018-06-21T03:55:51.202Z,18.25
2018-06-21T03:56:51.190Z,18.28
2018-06-21T03:57:51.183Z,18.39
2018-06-21T03:58:51.193Z,18.42
2018-06-21T03:59:51.184Z,18.44
2018-06-21T04:00:51.177Z,18.49
2018-06-21T04:01:51.177Z,18.52
2018-06-21T04:02:51.174Z,18.62
2018-06-21T04:03:51.199Z,18.77
2018-06-21T04:04:51.169Z,18.79
2018-06-21T04:05:51.177Z,18.79
2018-06-21T04:06:51.164Z,18.97
2018-06-21T04:07:51.166Z,18.99
2018-06-21T04:08:51.158Z,19.06
2018-06-21T04:09:51.161Z,19.11
2018-06-21T04:10:51.180Z,19.10
2018-06-21T04:11:51.154Z,19.14
2018-06-21T04:12:51.151Z,19.14
2018-06-21T04:13:51.159Z,19.25
2018-06-21T04:14:51.155Z,19.13
2018-06-21T04:15:51.269Z,19.11
2018-06-21T04:16:51.274Z,19.14
2018-06-21T04:17:51.182Z,19.24
2018-06-21T04:18:51.273Z,19.21
2018-06-21T04:19:51.282Z,19.31
2018-06-21T04:20:51.291Z,19.25
2018-06-21T04:21:51.219Z,19.28
2018-06-21T04:22:51.151Z,19.24
2018-06-21T04:23:51.309Z,19.20
2018-06-21T04:24:51.144Z,19.20
2018-06-21T04:25:51.323Z,19.29
2018-06-21T04:26:51.833Z,19.25
2018-06-21T04:27:51.118Z,19.40
2018-06-21T04:28:51.120Z,19.42
2018-06-21T04:29:51.125Z,19.65
2018-06-21T04:30:51.116Z,19.60
2018-06-21T04:31:51.123Z,19.54
2018-06-21T04:32:51.136Z,19.53
2018-06-21T04:33:51.113Z,19.53
2018-06-21T04:34:51.144Z,19.54
2018-06-21T04:35:51.181Z,19.53
2018-06-21T04:36:51.185Z,19.69
2018-06-21T04:37:51.249Z,19.70
2018-06-21T04:38:51.172Z,19.70
2018-06-21T04:39:51.210Z,19.69
2018-06-21T04:40:51.109Z,19.69
2018-06-21T04:41:51.213Z,19.68
2018-06-21T04:42:51.095Z,19.75
2018-06-21T04:43:51.103Z,19.80
2018-06-21T04:44:51.243Z,19.79
2018-06-21T04:45:51.972Z,19.84
2018-06-21T04:46:51.095Z,19.97
2018-06-21T04:47:51.114Z,19.95
2018-06-21T04:48:51.089Z,20.05
2018-06-21T04:49:51.257Z,19.90
2018-06-21T04:50:51.157Z,19.95
2018-06-21T04:51:51.291Z,19.80
2018-06-21T04:52:51.089Z,19.75
2018-06-21T04:53:51.104Z,19.83
2018-06-21T04:54:51.082Z,19.76
2018-06-21T04:55:51.081Z,19.79
2018-06-21T04:56:51.110Z,19.76
2018-06-21T04:57:51.126Z,19.79
2018-06-21T04:58:51.145Z,19.76
2018-06-21T04:59:51.077Z,19.69
2018-06-21T05:00:51.068Z,19.69
2018-06-21T05:01:51.065Z,19.73
2018-06-21T05:02:51.053Z,19.76
2018-06-21T05:03:51.144Z,19.70
2018-06-21T05:04:51.062Z,19.73
2018-06-21T05:05:51.064Z,19.84
2018-06-21T05:06:51.061Z,19.79
2018-06-21T05:07:51.063Z,19.73
2018-06-21T05:08:51.067Z,19.91
2018-06-21T05:09:51.060Z,19.75
2018-06-21T05:10:51.057Z,19.90
2018-06-21T05:11:51.060Z,19.93
2018-06-21T05:12:51.063Z,19.90
2018-06-21T05:13:51.056Z,19.91
2018-06-21T05:14:51.049Z,19.88
2018-06-21T05:15:51.043Z,19.94
2018-06-21T05:16:51.042Z,20.09
2018-06-21T05:17:51.047Z,20.21
2018-06-21T05:18:51.047Z,20.16
2018-06-21T05:19:51.051Z,20.30
2018-06-21T05:20:51.056Z,20.39
2018-06-21T05:21:51.053Z,20.53
2018-06-21T05:22:51.096Z,20.62
2018-06-21T05:23:51.042Z,20.62
2018-06-21T05:24:51.046Z,20.76
2018-06-21T05:25:51.054Z,20.81
2018-06-21T05:26:51.042Z,20.76
2018-06-21T05:27:51.036Z,20.80
2018-06-21T05:28:51.045Z,20.83
2018-06-21T05:29:51.044Z,21.11
2018-06-21T05:30:51.025Z,20.96
2018-06-21T05:31:51.037Z,21.02
2018-06-21T05:32:51.038Z,21.05
2018-06-21T05:33:51.038Z,21.09
2018-06-21T05:34:51.037Z,21.17
2018-06-21T05:35:51.034Z,21.13
2018-06-21T05:36:51.033Z,21.26
2018-06-21T05:37:51.032Z,21.32
2018-06-21T05:38:51.039Z,21.38
2018-06-21T05:39:51.053Z,21.35
2018-06-21T05:40:51.044Z,21.46
2018-06-21T05:41:51.033Z,21.44
2018-06-21T05:42:51.036Z,21.57
2018-06-21T05:43:51.038Z,21.57
2018-06-21T05:44:51.036Z,21.59
2018-06-21T05:45:51.033Z,21.81
2018-06-21T05:46:51.072Z,22.01
2018-06-21T05:47:51.055Z,21.85
2018-06-21T05:48:51.030Z,22.12
2018-06-21T05:49:51.040Z,22.20
2018-06-21T05:50:51.040Z,22.31
2018-06-21T05:51:51.040Z,22.31
2018-06-21T05:52:51.037Z,22.41
2018-06-21T05:53:51.061Z,22.41
2018-06-21T05:54:51.039Z,22.50
2018-06-21T05:55:51.040Z,22.50
2018-06-21T05:56:51.038Z,22.65
2018-06-21T05:57:51.036Z,22.83
2018-06-21T05:58:51.053Z,22.99
2018-06-21T05:59:51.064Z,23.20
2018-06-21T06:00:51.047Z,23.35
2018-06-21T06:01:51.040Z,23.58
2018-06-21T06:02:51.045Z,23.53
2018-06-21T06:03:51.051Z,23.32
2018-06-21T06:04:51.056Z,23.24
2018-06-21T06:05:51.037Z,23.17
2018-06-21T06:06:51.040Z,23.27
2018-06-21T06:07:51.048Z,23.19
2018-06-21T06:08:51.048Z,23.05
2018-06-21T06:09:51.046Z,22.84
2018-06-21T06:10:51.054Z,22.94
2018-06-21T06:11:51.052Z,23.19
2018-06-21T06:12:51.051Z,23.14
2018-06-21T06:13:51.055Z,23.40
2018-06-21T06:14:51.054Z,23.57
2018-06-21T06:15:51.059Z,23.86
2018-06-21T06:16:51.056Z,23.72
2018-06-21T06:17:51.060Z,23.98
2018-06-21T06:18:51.064Z,24.19
2018-06-21T06:19:51.097Z,24.56
2018-06-21T06:20:51.074Z,24.41
2018-06-21T06:21:51.078Z,24.61
2018-06-21T06:22:51.088Z,24.26
2018-06-21T06:23:51.073Z,24.54
2018-06-21T06:24:51.076Z,24.49
2018-06-21T06:25:51.075Z,24.20
2018-06-21T06:26:51.084Z,24.07
2018-06-21T06:27:51.085Z,23.94
2018-06-21T06:28:51.076Z,24.17
2018-06-21T06:29:51.099Z,24.49
2018-06-21T06:30:51.096Z,24.68
2018-06-21T06:31:51.094Z,24.67
2018-06-21T06:32:51.098Z,25.17
2018-06-21T06:33:51.104Z,25.61
2018-06-21T06:34:51.110Z,25.43
2018-06-21T06:35:51.109Z,25.12
2018-06-21T06:36:51.108Z,25.28
2018-06-21T06:37:51.123Z,25.56
2018-06-21T06:38:51.115Z,25.42
2018-06-21T06:39:51.122Z,25.22
2018-06-21T06:40:51.123Z,25.39
2018-06-21T06:41:51.124Z,25.54
2018-06-21T06:42:51.141Z,25.44
2018-06-21T06:43:51.133Z,25.31
2018-06-21T06:44:51.153Z,25.49
2018-06-21T06:45:51.140Z,25.71
2018-06-21T06:46:51.162Z,25.62
2018-06-21T06:47:51.206Z,25.83
2018-06-21T06:48:51.161Z,25.94
2018-06-21T06:49:51.170Z,25.97
2018-06-21T06:50:51.158Z,26.18
2018-06-21T06:51:51.150Z,26.49
2018-06-21T06:52:51.161Z,26.64
2018-06-21T06:53:51.165Z,26.61
2018-06-21T06:54:51.174Z,26.49
2018-06-21T06:55:51.179Z,26.61
2018-06-21T06:56:51.199Z,26.64
2018-06-21T06:57:51.186Z,26.77
2018-06-21T06:58:51.189Z,27.20
2018-06-21T06:59:51.190Z,27.14
2018-06-21T07:00:51.192Z,27.33
2018-06-21T07:01:51.317Z,27.84
2018-06-21T07:02:51.326Z,27.88
2018-06-21T07:03:51.219Z,28.31
2018-06-21T07:04:51.201Z,28.63
2018-06-21T07:05:51.203Z,28.58
2018-06-21T07:06:51.226Z,28.58
2018-06-21T07:07:51.214Z,28.81
2018-06-21T07:08:51.219Z,29.19
2018-06-21T07:09:51.230Z,29.41
2018-06-21T07:10:51.233Z,29.63
2018-06-21T07:11:51.242Z,29.79
2018-06-21T07:12:51.254Z,29.18
2018-06-21T07:13:51.259Z,29.59
2018-06-21T07:14:51.287Z,29.99
2018-06-21T07:15:51.289Z,29.90
2018-06-21T07:16:51.299Z,29.97
2018-06-21T07:17:51.302Z,30.27
2018-06-21T07:18:51.314Z,30.67
2018-06-21T07:19:51.329Z,30.94
2018-06-21T07:20:51.339Z,31.18
2018-06-21T07:21:51.353Z,31.13
2018-06-21T07:22:51.359Z,31.33
2018-06-21T07:23:51.372Z,31.08
2018-06-21T07:24:51.380Z,31.11
2018-06-21T07:25:51.424Z,30.03
2018-06-21T07:26:51.401Z,30.57
2018-06-21T07:27:51.417Z,31.27
2018-06-21T07:28:51.445Z,31.61
2018-06-21T07:29:51.489Z,32.02
2018-06-21T07:30:51.456Z,32.06
2018-06-21T07:31:51.475Z,32.22
2018-06-21T07:32:51.498Z,32.42
2018-06-21T07:33:51.491Z,32.66
2018-06-21T07:34:51.517Z,32.36
2018-06-21T07:35:51.526Z,31.95
2018-06-21T07:36:51.541Z,32.52
2018-06-21T07:37:51.556Z,32.74
2018-06-21T07:38:51.592Z,33.13
2018-06-21T07:39:51.582Z,32.44
2018-06-21T07:40:51.595Z,32.27
2018-06-21T07:41:51.631Z,32.73
2018-06-21T07:42:51.642Z,33.30
2018-06-21T07:43:51.642Z,33.61
2018-06-21T07:44:51.656Z,33.82
2018-06-21T07:45:51.684Z,34.08
2018-06-21T07:46:51.743Z,34.16
2018-06-21T07:47:51.695Z,34.36
2018-06-21T07:48:51.718Z,34.19
2018-06-21T07:49:51.745Z,33.67
2018-06-21T07:50:51.760Z,33.55
2018-06-21T07:51:51.772Z,33.52
2018-06-21T07:52:51.793Z,33.83
2018-06-21T07:53:51.845Z,34.38
2018-06-21T07:54:51.836Z,34.19
2018-06-21T07:55:51.827Z,34.45
2018-06-21T07:56:51.861Z,34.72
2018-06-21T07:57:51.858Z,34.84
2018-06-21T07:58:51.876Z,34.95
2018-06-21T07:59:51.905Z,34.95
2018-06-21T08:00:51.918Z,34.57
2018-06-21T08:01:51.965Z,34.73
2018-06-21T08:02:51.971Z,35.21
2018-06-21T08:03:51.983Z,35.52
2018-06-21T08:04:51.990Z,35.47
2018-06-21T08:05:52.017Z,35.85
2018-06-21T08:06:52.018Z,36.17
2018-06-21T08:07:52.049Z,36.31
2018-06-21T08:08:52.085Z,36.60
2018-06-21T08:09:52.081Z,36.90
2018-06-21T08:10:52.117Z,36.77
2018-06-21T08:11:52.144Z,36.46
2018-06-21T08:12:52.139Z,35.89
2018-06-21T08:13:52.146Z,35.74
2018-06-21T08:14:52.158Z,36.01
2018-06-21T08:15:52.182Z,36.23
2018-06-21T08:16:52.200Z,36.51
2018-06-21T08:17:52.222Z,36.39
2018-06-21T08:18:52.238Z,36.67
2018-06-21T08:19:52.282Z,37.23
2018-06-21T08:20:52.283Z,37.61
2018-06-21T08:21:52.297Z,37.50
2018-06-21T08:22:52.316Z,37.10
2018-06-21T08:23:52.413Z,37.61
2018-06-21T08:24:52.355Z,37.77
2018-06-21T08:25:52.378Z,37.89
2018-06-21T08:26:52.439Z,37.61
2018-06-21T08:27:52.417Z,37.67
2018-06-21T08:28:52.448Z,37.14
2018-06-21T08:29:52.488Z,37.51
2018-06-21T08:30:52.479Z,37.04
2018-06-21T08:31:52.500Z,37.33
2018-06-21T08:32:52.521Z,37.64
2018-06-21T08:33:52.533Z,37.74
2018-06-21T08:34:52.554Z,37.99
2018-06-21T08:35:52.576Z,37.28
2018-06-21T08:36:52.616Z,36.79
2018-06-21T08:37:52.628Z,36.41
2018-06-21T08:38:52.646Z,36.80
2018-06-21T08:39:52.656Z,36.63
2018-06-21T08:40:52.677Z,36.03
2018-06-21T08:41:52.689Z,35.81
2018-06-21T08:42:52.706Z,36.35
2018-06-21T08:43:52.737Z,36.43
2018-06-21T08:44:52.756Z,36.35
2018-06-21T08:45:52.891Z,36.43
2018-06-21T08:46:52.815Z,36.49
2018-06-21T08:47:52.821Z,37.14
2018-06-21T08:48:52.838Z,37.50
2018-06-21T08:49:52.860Z,37.13
2018-06-21T08:50:52.891Z,37.10
2018-06-21T08:51:52.908Z,36.67
2018-06-21T08:52:52.938Z,36.99
2018-06-21T08:53:52.940Z,37.10
2018-06-21T08:54:52.970Z,37.77
2018-06-21T08:55:53.009Z,37.38
2018-06-21T08:56:52.999Z,37.77
2018-06-21T08:57:53.033Z,38.49
2018-06-21T08:58:53.057Z,38.83
2018-06-21T08:59:53.068Z,38.98
2018-06-21T09:00:53.088Z,38.36
2018-06-21T09:01:53.131Z,38.78
2018-06-21T09:02:53.128Z,38.48
2018-06-21T09:03:53.175Z,37.35
2018-06-21T09:04:53.179Z,37.07
2018-06-21T09:05:53.191Z,37.99
2018-06-21T09:06:53.215Z,38.04
2018-06-21T09:07:53.300Z,38.03
2018-06-21T09:08:53.257Z,38.39
2018-06-21T09:09:53.276Z,38.83
2018-06-21T09:10:53.299Z,38.98
2018-06-21T09:11:53.333Z,38.95
2018-06-21T09:12:53.339Z,39.47
2018-06-21T09:13:53.358Z,39.69
2018-06-21T09:14:53.399Z,39.62
2018-06-21T09:15:53.407Z,39.54
2018-06-21T09:16:53.438Z,38.79
2018-06-21T09:17:53.518Z,38.53
2018-06-21T09:18:53.470Z,38.80
2018-06-21T09:19:53.487Z,37.73
2018-06-21T09:20:53.513Z,37.26
2018-06-21T09:21:53.533Z,37.56
2018-06-21T09:22:53.556Z,36.57
2018-06-21T09:23:53.618Z,36.41
2018-06-21T09:24:53.597Z,36.15
2018-06-21T09:25:53.623Z,36.43
2018-06-21T09:26:53.649Z,36.87
2018-06-21T09:27:53.709Z,36.68
2018-06-21T09:28:53.663Z,36.14
2018-06-21T09:29:53.692Z,35.89
2018-06-21T09:30:53.707Z,35.97
2018-06-21T09:31:53.759Z,35.29
2018-06-21T09:32:53.748Z,34.20
2018-06-21T09:33:53.781Z,33.67
2018-06-21T09:34:53.782Z,33.46
2018-06-21T09:35:53.807Z,33.94
2018-06-21T09:36:53.821Z,35.21
2018-06-21T09:37:53.845Z,36.03
2018-06-21T09:38:53.863Z,36.04
2018-06-21T09:39:53.883Z,36.51
2018-06-21T09:40:53.924Z,37.28
2018-06-21T09:41:53.928Z,37.16
2018-06-21T09:42:53.948Z,37.51
2018-06-21T09:44:03.830Z,37.31
2018-06-21T09:44:53.984Z,37.02
2018-06-21T09:45:54.006Z,36.56
2018-06-21T09:46:54.060Z,37.28
2018-06-21T09:47:54.063Z,37.78
2018-06-21T09:48:54.071Z,36.33
2018-06-21T09:49:54.093Z,36.01
2018-06-21T09:50:54.118Z,35.55
2018-06-21T09:51:54.126Z,34.79
2018-06-21T09:52:54.150Z,34.54
2018-06-21T09:53:54.169Z,34.63
2018-06-21T09:54:54.196Z,35.39
2018-06-21T09:55:54.233Z,35.89
2018-06-21T09:56:54.244Z,36.65
2018-06-21T09:57:54.250Z,37.31
2018-06-21T09:58:54.288Z,37.71
2018-06-21T09:59:54.298Z,37.33
2018-06-21T10:00:54.317Z,37.19
2018-06-21T10:01:54.346Z,36.82
2018-06-21T10:02:54.381Z,36.31
2018-06-21T10:03:54.382Z,36.36
2018-06-21T10:04:54.416Z,34.54
2018-06-21T10:05:54.419Z,34.17
2018-06-21T10:06:54.451Z,35.45
2018-06-21T10:07:54.464Z,36.23
2018-06-21T10:08:54.485Z,36.82
2018-06-21T10:09:54.505Z,37.54
2018-06-21T10:10:54.525Z,37.33
2018-06-21T10:11:54.550Z,37.70
2018-06-21T10:12:54.564Z,38.05
2018-06-21T10:13:54.603Z,38.34
2018-06-21T10:14:54.612Z,37.81
2018-06-21T10:15:54.631Z,36.58
2018-06-21T10:16:54.654Z,36.21
2018-06-21T10:17:54.683Z,37.13
2018-06-21T10:18:54.695Z,37.83
2018-06-21T10:19:54.758Z,38.11
2018-06-21T10:20:54.722Z,38.58
2018-06-21T10:21:54.744Z,38.76
2018-06-21T10:22:54.761Z,37.93
2018-06-21T10:23:54.797Z,36.95
2018-06-21T10:24:54.809Z,35.48
2018-06-21T10:25:54.831Z,36.42
2018-06-21T10:26:54.853Z,36.46
2018-06-21T10:27:54.871Z,36.90
2018-06-21T10:28:54.891Z,36.06
2018-06-21T10:29:54.912Z,36.36
2018-06-21T10:30:54.934Z,37.04
2018-06-21T10:31:54.947Z,37.58
2018-06-21T10:32:54.977Z,38.22
2018-06-21T10:33:55.002Z,38.60
2018-06-21T10:34:55.027Z,38.08
2018-06-21T10:35:55.041Z,36.26
2018-06-21T10:36:55.061Z,35.28
2018-06-21T10:37:55.082Z,34.80
2018-06-21T10:38:55.105Z,33.82
2018-06-21T10:39:55.122Z,32.81
2018-06-21T10:40:55.136Z,31.92
2018-06-21T10:41:55.197Z,31.75
2018-06-21T10:42:55.171Z,32.36
2018-06-21T10:43:55.184Z,33.17
2018-06-21T10:44:55.209Z,34.26
2018-06-21T10:45:55.217Z,34.66
2018-06-21T10:46:55.249Z,34.92
2018-06-21T10:47:55.258Z,35.08
2018-06-21T10:48:55.300Z,35.93
2018-06-21T10:49:55.293Z,35.95
2018-06-21T10:50:55.307Z,36.63
2018-06-21T10:51:55.334Z,36.58
2018-06-21T10:52:55.354Z,36.19
2018-06-21T10:53:55.359Z,36.39
2018-06-21T10:54:55.376Z,35.66
2018-06-21T10:55:55.401Z,36.12
2018-06-21T10:56:55.414Z,37.02
2018-06-21T10:57:55.435Z,36.31
2018-06-21T10:58:55.445Z,35.45
2018-06-21T10:59:55.470Z,34.74
2018-06-21T11:00:55.507Z,34.51
2018-06-21T11:01:55.503Z,34.81
2018-06-21T11:02:55.517Z,34.27
2018-06-21T11:03:55.536Z,33.97
2018-06-21T11:04:55.555Z,34.07
2018-06-21T11:05:55.582Z,33.82
2018-06-21T11:06:55.599Z,34.19
2018-06-21T11:07:55.609Z,35.30
2018-06-21T11:08:55.623Z,35.33
2018-06-21T11:09:55.637Z,34.32
2018-06-21T11:10:55.675Z,34.74
2018-06-21T11:11:55.671Z,33.92
2018-06-21T11:12:55.689Z,34.34
2018-06-21T11:13:55.704Z,34.48
2018-06-21T11:14:55.716Z,35.64
2018-06-21T11:15:55.742Z,36.58
2018-06-21T11:16:55.766Z,36.07
2018-06-21T11:17:55.765Z,36.65
2018-06-21T11:18:55.791Z,36.97
2018-06-21T11:19:55.806Z,37.10
2018-06-21T11:20:55.829Z,36.52
2018-06-21T11:21:55.856Z,35.51
2018-06-21T11:22:55.858Z,34.80
2018-06-21T11:23:55.905Z,34.46
2018-06-21T11:24:55.913Z,34.08
2018-06-21T11:25:55.908Z,33.49
2018-06-21T11:26:55.931Z,33.80
2018-06-21T11:27:55.954Z,33.74
2018-06-21T11:28:55.948Z,33.37
2018-06-21T11:29:55.981Z,32.61
2018-06-21T11:30:55.993Z,32.77
2018-06-21T11:31:56.005Z,32.73
2018-06-21T11:32:56.016Z,33.42
2018-06-21T11:33:56.034Z,34.23
2018-06-21T11:34:56.052Z,33.82
2018-06-21T11:35:56.076Z,32.84
2018-06-21T11:36:56.079Z,32.47
2018-06-21T11:37:56.109Z,31.92
2018-06-21T11:38:56.113Z,31.58
2018-06-21T11:39:56.110Z,31.13
2018-06-21T11:40:56.131Z,30.59
2018-06-21T11:41:56.139Z,30.26
2018-06-21T11:42:56.155Z,29.92
2018-06-21T11:43:56.165Z,29.29
2018-06-21T11:44:56.176Z,29.11
2018-06-21T11:45:56.188Z,28.14
2018-06-21T11:46:56.198Z,27.58
2018-06-21T11:47:56.211Z,26.24
2018-06-21T11:48:56.214Z,25.49
2018-06-21T11:49:56.223Z,24.80
2018-06-21T11:50:56.234Z,24.02
2018-06-21T11:51:56.245Z,23.35
2018-06-21T11:54:12.650Z,22.37
2018-06-21T11:54:51.620Z,20.96
2018-06-21T11:56:44.589Z,19.54
2018-06-21T11:57:44.567Z,19.25
2018-06-21T11:59:37.513Z,18.65
2018-06-21T12:00:37.506Z,18.80
2018-06-21T12:02:30.434Z,19.13
2018-06-21T12:03:30.416Z,19.01
2018-06-21T12:05:23.342Z,19.21
2018-06-21T12:06:23.336Z,19.29
2018-06-21T12:08:16.322Z,19.60
2018-06-21T12:09:16.302Z,19.60
2018-06-21T12:11:09.235Z,19.84
2018-06-21T12:12:09.223Z,19.93
2018-06-21T12:14:02.223Z,20.20
2018-06-21T12:15:02.149Z,20.21
2018-06-21T12:16:55.077Z,20.65
2018-06-21T12:17:55.060Z,20.84
2018-06-21T12:19:48.035Z,21.29
2018-06-21T12:20:48.054Z,21.50
2018-06-21T12:22:40.946Z,22.01
2018-06-21T12:23:40.940Z,22.20
2018-06-21T12:25:33.819Z,22.75
2018-06-21T12:26:33.812Z,23.24
2018-06-21T12:28:26.793Z,24.01
2018-06-21T12:29:26.772Z,24.47
2018-06-21T12:31:19.687Z,25.50
2018-06-21T12:32:19.678Z,25.71
2018-06-21T12:34:12.624Z,25.68
2018-06-21T12:35:12.599Z,25.77
2018-06-21T12:37:05.566Z,25.68
2018-06-21T12:38:05.607Z,25.72
2018-06-21T12:39:58.517Z,25.83
2018-06-21T12:40:58.585Z,25.65
2018-06-21T12:42:52.471Z,25.59
2018-06-21T12:43:52.458Z,25.32
2018-06-21T12:45:45.388Z,25.27
2018-06-21T12:46:45.392Z,25.38
2018-06-21T12:48:38.385Z,25.43
2018-06-21T12:49:38.374Z,25.31
2018-06-21T12:51:31.263Z,25.25
2018-06-21T12:52:31.345Z,25.17
2018-06-21T12:54:24.188Z,24.87
2018-06-21T12:55:24.176Z,25.01
2018-06-21T12:57:17.148Z,24.98
2018-06-21T12:58:17.134Z,25.09
2018-06-21T13:00:10.063Z,25.32
2018-06-21T13:01:10.060Z,25.39
2018-06-21T13:03:02.991Z,25.43
2018-06-21T13:04:02.978Z,25.57
2018-06-21T13:05:55.922Z,25.80
2018-06-21T13:06:55.917Z,25.83
2018-06-21T13:08:48.874Z,26.04
2018-06-21T13:09:48.858Z,26.15
2018-06-21T13:11:41.810Z,26.15
2018-06-21T13:12:41.804Z,26.40
2018-06-21T13:14:34.737Z,26.35
2018-06-21T13:15:34.723Z,26.50
2018-06-21T13:17:27.707Z,26.29
2018-06-21T13:18:27.694Z,26.04
2018-06-21T13:20:20.616Z,26.05
2018-06-21T13:21:20.600Z,25.91
2018-06-21T13:23:13.567Z,26.01
2018-06-21T13:24:13.550Z,26.06
2018-06-21T13:26:06.493Z,26.52
2018-06-21T13:27:06.487Z,26.74
2018-06-21T13:28:59.455Z,27.21
2018-06-21T13:29:59.511Z,27.38
2018-06-21T13:31:52.401Z,27.26
2018-06-21T13:32:52.386Z,27.01
2018-06-21T13:34:45.315Z,26.86
2018-06-21T13:35:45.295Z,26.87
2018-06-21T13:37:38.241Z,27.06
2018-06-21T13:38:38.221Z,27.10
2018-06-21T13:40:31.181Z,27.01
2018-06-21T13:41:31.175Z,26.96
2018-06-21T13:43:24.091Z,26.87
2018-06-21T13:44:24.083Z,27.02
2018-06-21T13:46:17.005Z,27.31
2018-06-21T13:47:16.991Z,27.39
2018-06-21T13:49:09.949Z,27.28
2018-06-21T13:50:09.932Z,27.23
2018-06-21T13:52:02.871Z,27.47
2018-06-21T13:53:02.878Z,27.58
2018-06-21T13:54:55.790Z,27.47
2018-06-21T13:55:55.772Z,27.64
2018-06-21T13:57:48.694Z,27.74
2018-06-21T13:58:48.683Z,27.79
2018-06-21T14:00:41.596Z,27.73
2018-06-21T14:01:41.592Z,27.36
2018-06-21T14:03:34.505Z,27.48
2018-06-21T14:04:34.482Z,27.62
2018-06-21T14:06:27.389Z,27.70
2018-06-21T14:07:27.394Z,27.74
2018-06-21T14:09:20.303Z,27.85